createdAt,value
2019-04-10T00:02:25.851Z,61.17
2019-04-10T00:04:55.789Z,61.62
2019-04-10T00:07:25.697Z,61.25
2019-04-10T00:09:55.124Z,60.51
2019-04-10T00:12:25.391Z,60.94
2019-04-10T00:14:54.737Z,60.83
2019-04-10T00:17:24.993Z,60.76
2019-04-10T00:19:54.201Z,61.03
2019-04-10T00:22:24.255Z,61.18
2019-04-10T00:24:54.517Z,60.99
2019-04-10T00:27:23.657Z,60.95
2019-04-10T00:29:54.405Z,60.61
2019-04-10T00:32:23.816Z,60.78
2019-04-10T00:34:54.030Z,60.56
2019-04-10T00:37:27.195Z,60.60
2019-04-10T00:39:55.046Z,60.79
2019-04-10T00:42:25.967Z,61.20
2019-04-10T00:44:56.284Z,60.76
2019-04-10T00:47:27.007Z,61.10
2019-04-10T00:49:56.162Z,60.74
2019-04-10T00:52:25.458Z,61.23
2019-04-10T00:54:55.356Z,61.72
2019-04-10T00:57:25.466Z,61.30
2019-04-10T00:59:54.728Z,61.31
2019-04-10T01:02:24.869Z,61.70
2019-04-10T01:04:54.951Z,61.46
2019-04-10T01:07:34.465Z,61.80
2019-04-10T01:09:55.594Z,61.68
2019-04-10T01:12:25.015Z,61.35
2019-04-10T01:14:56.178Z,61.47
2019-04-10T01:17:28.434Z,60.89
2019-04-10T01:19:58.728Z,60.52
2019-04-10T01:22:28.010Z,60.92
2019-04-10T01:24:57.804Z,60.80
2019-04-10T01:27:27.791Z,61.01
2019-04-10T01:29:57.997Z,60.91
2019-04-10T01:32:27.957Z,61.03
2019-04-10T01:34:58.749Z,60.86
2019-04-10T01:37:28.891Z,61.05
2019-04-10T01:39:59.031Z,60.85
2019-04-10T01:42:28.463Z,60.61
2019-04-10T01:44:58.672Z,60.56
2019-04-10T01:47:28.849Z,60.40
2019-04-10T01:50:00.816Z,60.38
2019-04-10T01:52:29.608Z,60.38
2019-04-10T01:54:59.738Z,59.96
2019-04-10T01:57:28.955Z,60.53
2019-04-10T01:59:58.310Z,61.13
2019-04-10T02:02:33.608Z,60.82
2019-04-10T02:05:03.946Z,61.31
2019-04-10T02:07:34.065Z,61.01
2019-04-10T02:10:03.688Z,61.83
2019-04-10T02:12:33.029Z,61.88
2019-04-10T02:15:03.008Z,62.12
2019-04-10T02:17:32.708Z,62.34
2019-04-10T02:20:02.911Z,62.29
2019-04-10T02:22:32.878Z,62.90
2019-04-10T02:25:03.308Z,63.22
2019-04-10T02:27:32.550Z,62.51
2019-04-10T02:30:02.663Z,63.32
2019-04-10T02:32:32.358Z,63.49
2019-04-10T02:35:03.872Z,63.58
2019-04-10T02:37:35.050Z,64.09
2019-04-10T02:40:05.453Z,63.49
2019-04-10T02:42:35.566Z,64.64
2019-04-10T02:45:06.015Z,64.65
2019-04-10T02:47:36.934Z,65.05
2019-04-10T02:50:08.370Z,64.25
2019-04-10T02:52:40.176Z,64.76
2019-04-10T02:55:09.878Z,65.09
2019-04-10T02:57:39.380Z,65.14
2019-04-10T03:00:10.681Z,65.57
2019-04-10T03:02:41.721Z,65.92
2019-04-10T03:05:10.905Z,66.57
2019-04-10T03:07:40.456Z,66.45
2019-04-10T03:10:21.683Z,66.13
2019-04-10T03:12:46.421Z,66.74
2019-04-10T03:15:17.188Z,67.16
2019-04-10T03:17:46.951Z,66.74
2019-04-10T03:20:16.309Z,66.41
2019-04-10T03:22:45.473Z,66.84
2019-04-10T03:25:14.900Z,66.87
2019-04-10T03:27:44.808Z,66.95
2019-04-10T03:30:15.256Z,67.10
2019-04-10T03:33:20.977Z,67.38
2019-04-10T03:35:49.559Z,67.25
2019-04-10T03:38:18.736Z,67.61
2019-04-10T03:40:48.087Z,67.35
2019-04-10T03:43:17.487Z,67.62
2019-04-10T03:45:46.782Z,67.77
2019-04-10T03:48:16.031Z,68.02
2019-04-10T03:50:45.200Z,67.54
2019-04-10T03:53:14.397Z,67.31
2019-04-10T03:55:45.269Z,67.05
2019-04-10T03:58:15.491Z,66.86
2019-04-10T04:00:44.835Z,67.46
2019-04-10T04:03:14.086Z,66.40
2019-04-10T04:05:46.558Z,66.35
2019-04-10T04:08:15.963Z,66.10
2019-04-10T04:10:45.489Z,66.08
2019-04-10T04:13:15.321Z,65.95
2019-04-10T04:15:44.582Z,65.62
2019-04-10T04:18:15.022Z,66.12
2019-04-10T04:20:45.312Z,66.06
2019-04-10T04:23:14.697Z,66.40
2019-04-10T04:25:43.865Z,67.08
2019-04-10T04:28:13.114Z,66.30
2019-04-10T04:30:42.292Z,66.53
2019-04-10T04:33:11.439Z,66.90
2019-04-10T04:35:40.894Z,66.85
2019-04-10T04:38:10.042Z,66.59
2019-04-10T04:40:39.399Z,66.95
2019-04-10T04:43:08.549Z,67.21
2019-04-10T04:45:37.846Z,67.01
2019-04-10T04:48:09.737Z,67.17
2019-04-10T04:50:39.032Z,67.19
2019-04-10T04:53:08.708Z,67.13
2019-04-10T04:55:37.862Z,67.61
2019-04-10T04:58:06.993Z,67.54
2019-04-10T05:00:36.202Z,67.69
2019-04-10T05:03:09.904Z,67.91
2019-04-10T05:05:39.222Z,67.93
2019-04-10T05:08:08.529Z,68.17
2019-04-10T05:10:38.004Z,67.96
2019-04-10T05:13:08.127Z,68.15
2019-04-10T05:15:37.455Z,68.12
2019-04-10T05:18:06.681Z,67.79
2019-04-10T05:20:43.974Z,67.94
2019-04-10T05:23:06.712Z,68.23
2019-04-10T05:25:39.016Z,68.00
2019-04-10T05:28:08.286Z,68.17
2019-04-10T05:30:37.721Z,68.11
2019-04-10T05:33:08.140Z,68.40
2019-04-10T05:35:39.739Z,68.60
2019-04-10T05:38:09.004Z,67.92
2019-04-10T05:40:38.341Z,67.93
2019-04-10T05:43:07.546Z,67.63
2019-04-10T05:45:36.716Z,67.53
2019-04-10T05:48:06.797Z,67.25
2019-04-10T05:50:36.215Z,66.78
2019-04-10T05:53:07.767Z,66.66
2019-04-10T05:55:37.275Z,66.36
2019-04-10T05:58:09.199Z,66.06
2019-04-10T06:00:38.871Z,65.51
2019-04-10T06:03:08.124Z,65.48
2019-04-10T06:05:38.250Z,65.59
2019-04-10T06:08:07.867Z,65.23
2019-04-10T06:10:37.115Z,65.09
2019-04-10T06:13:06.822Z,64.70
2019-04-10T06:15:37.210Z,64.59
2019-04-10T06:18:07.405Z,64.62
2019-04-10T06:20:37.605Z,64.26
2019-04-10T06:23:07.420Z,64.11
2019-04-10T06:25:39.451Z,63.73
2019-04-10T06:28:10.425Z,64.10
2019-04-10T06:30:39.831Z,64.65
2019-04-10T06:33:09.702Z,64.47
2019-04-10T06:35:39.873Z,64.02
2019-04-10T06:38:09.085Z,64.07
2019-04-10T06:40:38.229Z,64.22
2019-04-10T06:43:08.504Z,64.02
2019-04-10T06:45:37.838Z,63.70
2019-04-10T06:48:06.979Z,63.49
2019-04-10T06:50:37.093Z,63.48
2019-04-10T06:53:06.388Z,63.78
2019-04-10T06:55:36.483Z,63.59
2019-04-10T06:58:05.642Z,63.14
2019-04-10T07:00:34.827Z,63.32
2019-04-10T07:03:04.016Z,63.15
2019-04-10T07:05:42.201Z,62.98
2019-04-10T07:08:12.482Z,62.53
2019-04-10T07:10:48.267Z,62.52
2019-04-10T07:13:10.042Z,62.74
2019-04-10T07:15:38.102Z,62.38
2019-04-10T07:18:12.652Z,62.48
2019-04-10T07:20:40.033Z,62.36
2019-04-10T07:23:09.244Z,62.03
2019-04-10T07:25:40.307Z,61.84
2019-04-10T07:28:10.736Z,61.87
2019-04-10T07:30:40.491Z,61.42
2019-04-10T07:33:09.766Z,61.35
2019-04-10T07:35:38.900Z,61.47
2019-04-10T07:38:08.093Z,61.13
2019-04-10T07:40:38.622Z,61.22
2019-04-10T07:43:07.960Z,60.81
2019-04-10T07:45:37.126Z,60.52
2019-04-10T07:48:06.677Z,60.33
2019-04-10T07:50:37.039Z,60.21
2019-04-10T07:53:06.606Z,59.32
2019-04-10T07:55:37.396Z,59.68
2019-04-10T07:58:06.902Z,59.27
2019-04-10T08:00:36.696Z,59.36
2019-04-10T08:03:06.312Z,58.76
2019-04-10T08:05:35.648Z,59.56
2019-04-10T08:08:05.224Z,59.10
2019-04-10T08:10:34.854Z,58.79
2019-04-10T08:13:04.526Z,57.99
2019-04-10T08:15:33.908Z,58.04
2019-04-10T08:18:03.172Z,58.37
2019-04-10T08:20:32.762Z,58.89
2019-04-10T08:23:01.934Z,58.12
2019-04-10T08:25:31.202Z,57.67
2019-04-10T08:28:00.679Z,57.51
2019-04-10T08:30:30.066Z,57.68
2019-04-10T08:33:01.271Z,57.21
2019-04-10T08:35:30.137Z,56.71
2019-04-10T08:37:59.628Z,56.33
2019-04-10T08:40:29.956Z,56.12
2019-04-10T08:42:59.950Z,55.50
2019-04-10T08:45:40.585Z,55.63
2019-04-10T08:48:01.358Z,55.90
2019-04-10T08:50:32.288Z,55.52
2019-04-10T08:53:02.082Z,55.14
2019-04-10T08:55:32.276Z,54.19
2019-04-10T08:58:02.868Z,54.01
2019-04-10T09:00:32.347Z,54.64
2019-04-10T09:03:02.415Z,53.39
2019-04-10T09:05:31.726Z,53.75
2019-04-10T09:08:00.856Z,53.07
2019-04-10T09:10:30.286Z,53.86
2019-04-10T09:13:00.059Z,53.96
2019-04-10T09:15:29.963Z,54.04
2019-04-10T09:17:59.806Z,54.05
2019-04-10T09:20:29.041Z,53.84
2019-04-10T09:23:17.906Z,53.50
2019-04-10T09:25:29.101Z,52.80
2019-04-10T09:27:58.222Z,52.67
2019-04-10T09:30:27.479Z,52.49
2019-04-10T09:32:57.034Z,52.74
2019-04-10T09:35:26.695Z,52.45
2019-04-10T09:37:56.638Z,52.09
2019-04-10T09:40:25.807Z,51.95
2019-04-10T09:42:55.566Z,50.93
2019-04-10T09:45:25.229Z,50.73
2019-04-10T09:47:55.769Z,51.01
2019-04-10T09:50:27.671Z,51.01
2019-04-10T09:52:56.851Z,50.25
2019-04-10T09:55:26.048Z,50.91
2019-04-10T09:57:55.314Z,50.19
2019-04-10T10:00:25.678Z,50.71
2019-04-10T10:02:55.075Z,50.18
2019-04-10T10:05:24.427Z,50.64
2019-04-10T10:07:56.093Z,49.84
2019-04-10T10:10:24.706Z,49.71
2019-04-10T10:12:53.830Z,48.44
2019-04-10T10:15:23.166Z,48.38
2019-04-10T10:17:52.916Z,49.21
2019-04-10T10:20:22.139Z,49.01
2019-04-10T10:22:51.804Z,47.74
2019-04-10T10:25:21.541Z,47.28
2019-04-10T10:27:51.006Z,47.46
2019-04-10T10:30:20.929Z,47.47
2019-04-10T10:32:51.046Z,47.81
2019-04-10T10:35:20.272Z,47.47
2019-04-10T10:37:50.472Z,47.54
2019-04-10T10:40:23.475Z,47.60
2019-04-10T10:42:52.618Z,46.97
2019-04-10T10:45:22.856Z,47.34
2019-04-10T10:47:52.679Z,47.35
2019-04-10T10:50:23.632Z,47.10
2019-04-10T10:52:52.849Z,47.11
2019-04-10T10:55:23.219Z,46.92
2019-04-10T10:57:52.432Z,46.03
2019-04-10T11:00:25.224Z,45.04
2019-04-10T11:02:54.528Z,45.67
2019-04-10T11:05:23.877Z,44.46
2019-04-10T11:07:53.173Z,43.41
2019-04-10T11:10:27.071Z,44.49
2019-04-10T11:12:55.207Z,44.24
2019-04-10T11:15:26.025Z,43.21
2019-04-10T11:17:55.521Z,42.20
2019-04-10T11:20:25.576Z,41.76
2019-04-10T11:22:55.824Z,42.74
2019-04-10T11:25:26.131Z,42.47
2019-04-10T11:27:56.478Z,41.01
2019-04-10T11:30:26.872Z,41.84
2019-04-10T11:32:56.104Z,42.35
2019-04-10T11:35:26.509Z,40.40
2019-04-10T11:37:59.033Z,40.87
2019-04-10T11:40:27.873Z,41.71
2019-04-10T11:43:00.007Z,41.94
2019-04-10T11:45:32.600Z,41.96
2019-04-10T11:48:01.559Z,43.19
2019-04-10T11:50:32.032Z,41.87
2019-04-10T11:53:02.176Z,42.68
2019-04-10T11:55:42.496Z,42.28
2019-04-10T11:58:03.004Z,41.10
2019-04-10T12:03:16.001Z,41.24
2019-04-10T12:05:46.276Z,40.30
2019-04-10T12:08:36.196Z,39.01
2019-04-10T12:13:18.384Z,38.03
2019-04-10T12:15:48.452Z,38.81
2019-04-10T12:18:18.301Z,37.77
2019-04-10T12:20:47.631Z,37.62
2019-04-10T12:23:17.027Z,38.25
2019-04-10T12:25:47.184Z,38.14
2019-04-10T12:28:16.491Z,37.85
2019-04-10T12:30:45.827Z,36.69
2019-04-10T12:33:15.056Z,36.48
2019-04-10T12:35:44.260Z,37.54
2019-04-10T12:38:13.514Z,36.20
2019-04-10T12:40:42.716Z,37.41
2019-04-10T12:43:12.953Z,35.07
2019-04-10T12:45:42.644Z,34.04
2019-04-10T12:48:12.538Z,32.49
2019-04-10T12:50:41.721Z,31.59
2019-04-10T12:53:11.553Z,33.56
2019-04-10T12:55:41.816Z,32.25
2019-04-10T12:58:17.045Z,34.24
2019-04-10T13:00:44.490Z,33.34
2019-04-10T13:03:14.641Z,31.46
2019-04-10T13:05:43.837Z,31.91
2019-04-10T13:08:21.201Z,33.60
2019-04-10T13:10:45.578Z,31.67
2019-04-10T13:13:14.835Z,30.91
2019-04-10T13:15:44.015Z,30.72
2019-04-10T13:18:14.397Z,32.01
2019-04-10T13:20:44.183Z,31.78
2019-04-10T13:23:14.891Z,31.18
2019-04-10T13:25:55.069Z,32.04
2019-04-10T13:28:15.217Z,29.72
2019-04-10T13:30:51.198Z,32.09
2019-04-10T13:33:16.254Z,31.73
2019-04-10T13:35:46.294Z,31.87
2019-04-10T13:38:24.077Z,31.05
2019-04-10T13:40:46.371Z,32.08
2019-04-10T13:43:16.017Z,31.96
2019-04-10T13:45:45.850Z,32.19
2019-04-10T13:48:14.991Z,32.07
2019-04-10T13:50:44.216Z,31.73
2019-04-10T13:53:13.541Z,31.56
2019-04-10T13:55:42.739Z,30.59
2019-04-10T13:58:11.913Z,27.82
2019-04-10T14:00:43.036Z,30.57
2019-04-10T14:03:12.952Z,30.08
2019-04-10T14:05:43.324Z,30.48
2019-04-10T14:08:13.021Z,31.56
2019-04-10T14:10:42.188Z,31.29
2019-04-10T14:13:11.641Z,30.61
2019-04-10T14:15:40.886Z,31.30
2019-04-10T14:18:10.294Z,31.81
2019-04-10T14:20:39.558Z,31.52
2019-04-10T14:23:28.660Z,29.23
2019-04-10T14:26:16.320Z,28.15
2019-04-10T14:28:46.181Z,29.66
2019-04-10T14:31:23.159Z,30.85
2019-04-10T14:33:53.247Z,30.53
2019-04-10T14:36:22.616Z,30.16
2019-04-10T14:38:51.797Z,29.80
2019-04-10T14:41:22.005Z,30.94
2019-04-10T14:43:51.411Z,29.68
2019-04-10T14:46:20.788Z,32.99
2019-04-10T14:48:50.010Z,30.43
2019-04-10T14:51:19.912Z,30.48
2019-04-10T14:53:49.234Z,31.10
2019-04-10T14:56:18.811Z,30.20
2019-04-10T14:58:47.911Z,29.51
2019-04-10T15:01:17.745Z,29.60
2019-04-10T15:03:46.962Z,31.37
2019-04-10T15:06:16.112Z,29.47
2019-04-10T15:08:46.034Z,30.72
2019-04-10T15:11:16.258Z,29.07
2019-04-10T15:13:45.756Z,29.19
2019-04-10T15:16:15.062Z,28.60
2019-04-10T15:18:44.190Z,28.83
2019-04-10T15:21:14.399Z,28.51
2019-04-10T15:23:44.511Z,29.12
2019-04-10T15:26:13.902Z,30.83
2019-04-10T15:28:43.626Z,29.35
2019-04-10T15:31:12.878Z,28.46
2019-04-10T15:33:42.182Z,27.56
2019-04-10T15:36:11.613Z,26.56
2019-04-10T15:38:40.785Z,27.38
2019-04-10T15:41:10.595Z,28.15
2019-04-10T15:43:41.282Z,27.94
2019-04-10T15:46:10.789Z,26.94
2019-04-10T15:48:39.921Z,27.75
2019-04-10T15:51:09.181Z,29.76
2019-04-10T15:53:38.353Z,29.04
2019-04-10T15:56:07.576Z,29.27
2019-04-10T15:58:36.726Z,27.97
2019-04-10T16:01:07.788Z,29.59
2019-04-10T16:03:36.945Z,30.29
2019-04-10T16:06:06.183Z,29.02
2019-04-10T16:08:36.498Z,28.88
2019-04-10T16:11:36.678Z,27.70
2019-04-10T16:14:16.684Z,28.53
2019-04-10T16:17:06.769Z,27.58
2019-04-10T16:19:44.861Z,27.09
2019-04-10T16:22:25.711Z,27.46
2019-04-10T16:24:55.916Z,27.65
2019-04-10T16:27:25.135Z,27.15
2019-04-10T16:29:56.611Z,28.04
2019-04-10T16:32:26.781Z,27.66
2019-04-10T16:34:56.783Z,28.38
2019-04-10T16:37:26.381Z,27.95
2019-04-10T16:40:00.686Z,27.80
2019-04-10T16:42:26.893Z,26.27
2019-04-10T16:44:56.041Z,27.84
2019-04-10T16:47:26.013Z,27.91
2019-04-10T16:49:55.332Z,27.87
2019-04-10T16:52:25.140Z,29.14
2019-04-10T16:54:55.478Z,30.16
2019-04-10T16:57:24.776Z,28.28
2019-04-10T16:59:55.850Z,29.06
2019-04-10T17:02:26.248Z,29.54
2019-04-10T17:04:56.363Z,30.25
2019-04-10T17:07:25.721Z,31.45
2019-04-10T17:09:55.064Z,30.90
2019-04-10T17:12:25.372Z,32.21
2019-04-10T17:14:55.514Z,34.04
2019-04-10T17:17:24.908Z,32.34
2019-04-10T17:19:57.243Z,32.18
2019-04-10T17:22:32.382Z,33.08
2019-04-10T17:24:56.149Z,33.35
2019-04-10T17:27:25.731Z,33.20
2019-04-10T17:29:56.558Z,33.44
2019-04-10T17:32:26.972Z,33.05
2019-04-10T17:34:57.098Z,34.59
2019-04-10T17:37:26.512Z,33.68
2019-04-10T17:39:55.817Z,34.47
2019-04-10T17:42:25.011Z,36.67
2019-04-10T17:44:54.167Z,36.54
2019-04-10T17:47:23.379Z,36.78
2019-04-10T17:49:53.837Z,36.31
2019-04-10T17:52:23.244Z,36.41
2019-04-10T17:54:53.350Z,36.10
2019-04-10T17:57:33.734Z,35.99
2019-04-10T17:59:54.429Z,36.07
2019-04-10T18:02:23.663Z,38.27
2019-04-10T18:04:53.929Z,37.80
2019-04-10T18:07:23.877Z,39.47
2019-04-10T18:09:53.230Z,41.86
2019-04-10T18:12:23.792Z,42.96
2019-04-10T18:14:52.962Z,43.53
2019-04-10T18:17:22.759Z,43.64
2019-04-10T18:19:52.461Z,44.12
2019-04-10T18:22:22.575Z,44.57
2019-04-10T18:24:52.119Z,45.13
2019-04-10T18:27:23.391Z,45.47
2019-04-10T18:29:55.199Z,46.33
2019-04-10T18:32:25.502Z,45.93
2019-04-10T18:34:55.218Z,46.12
2019-04-10T18:37:25.582Z,46.62
2019-04-10T18:39:57.026Z,46.49
2019-04-10T18:42:26.734Z,46.55
2019-04-10T18:44:57.401Z,46.82
2019-04-10T18:47:27.175Z,47.25
2019-04-10T18:49:58.027Z,47.49
2019-04-10T18:52:27.952Z,48.04
2019-04-10T18:55:08.225Z,48.60
2019-04-10T18:57:38.864Z,49.13
2019-04-10T19:00:32.427Z,49.31
2019-04-10T19:03:09.626Z,49.26
2019-04-10T19:05:41.718Z,49.45
2019-04-10T19:08:19.778Z,49.69
2019-04-10T19:10:49.451Z,49.29
2019-04-10T19:13:18.680Z,49.37
2019-04-10T19:15:49.330Z,49.40
2019-04-10T19:18:19.547Z,49.09
2019-04-10T19:20:49.267Z,49.40
2019-04-10T19:23:19.634Z,48.88
2019-04-10T19:25:51.448Z,49.30
2019-04-10T19:28:30.033Z,48.96
2019-04-10T19:31:08.816Z,49.47
2019-04-10T19:33:33.232Z,49.54
2019-04-10T19:36:03.637Z,49.49
2019-04-10T19:38:33.531Z,49.64
2019-04-10T19:41:02.803Z,49.46
2019-04-10T19:43:33.310Z,50.05
2019-04-10T19:46:06.125Z,50.26
2019-04-10T19:48:35.489Z,50.01
2019-04-10T19:51:07.972Z,50.30
2019-04-10T19:53:39.740Z,50.61
2019-04-10T19:56:09.925Z,51.14
2019-04-10T19:58:40.141Z,51.13
2019-04-10T20:01:10.857Z,51.37
2019-04-10T20:03:40.118Z,51.24
2019-04-10T20:06:09.473Z,51.83
2019-04-10T20:08:39.852Z,52.25
2019-04-10T20:11:10.742Z,52.50
2019-04-10T20:13:40.942Z,52.58
2019-04-10T20:16:11.131Z,52.73
2019-04-10T20:18:41.182Z,53.03
2019-04-10T20:21:11.994Z,53.25
2019-04-10T20:23:41.298Z,53.44
2019-04-10T20:26:10.752Z,53.69
2019-04-10T20:28:40.746Z,53.65
2019-04-10T20:31:15.308Z,53.71
2019-04-10T20:33:45.173Z,53.94
2019-04-10T20:36:15.145Z,54.02
2019-04-10T20:38:45.037Z,54.04
2019-04-10T20:41:16.245Z,54.45
2019-04-10T20:43:46.979Z,54.61
2019-04-10T20:46:16.544Z,54.54
2019-04-10T20:48:46.761Z,54.82
2019-04-10T20:51:18.685Z,55.18
2019-04-10T20:53:48.489Z,55.07
2019-04-10T20:56:18.773Z,55.25
2019-04-10T20:58:48.981Z,55.47
2019-04-10T21:01:18.321Z,55.51
2019-04-10T21:03:48.106Z,55.74
2019-04-10T21:06:17.631Z,55.96
2019-04-10T21:08:46.930Z,56.22
2019-04-10T21:11:16.856Z,56.65
2019-04-10T21:13:48.889Z,56.50
2019-04-10T21:16:18.292Z,56.80
2019-04-10T21:18:48.259Z,56.70
2019-04-10T21:21:18.586Z,56.82
2019-04-10T21:23:48.699Z,56.59
2019-04-10T21:26:17.896Z,57.01
2019-04-10T21:28:48.103Z,57.01
2019-04-10T21:31:34.221Z,57.45
2019-04-10T21:34:22.995Z,57.85
2019-04-10T21:36:53.334Z,57.56
2019-04-10T21:39:22.534Z,57.93
2019-04-10T21:41:51.716Z,58.39
2019-04-10T21:44:20.876Z,58.38
2019-04-10T21:46:50.047Z,58.56
2019-04-10T21:49:19.839Z,58.65
2019-04-10T21:51:49.494Z,58.76
2019-04-10T21:54:18.667Z,58.97
2019-04-10T21:56:47.811Z,59.29
2019-04-10T21:59:18.816Z,58.98
2019-04-10T22:01:49.099Z,59.36
2019-04-10T22:04:18.987Z,59.94
2019-04-10T22:07:14.057Z,60.01
2019-04-10T22:10:12.109Z,59.75
2019-04-10T22:12:46.948Z,60.26
2019-04-10T22:15:30.947Z,60.49
2019-04-10T22:18:00.877Z,59.96
2019-04-10T22:20:31.876Z,60.54
2019-04-10T22:23:02.259Z,60.39
2019-04-10T22:25:31.932Z,60.36
2019-04-10T22:28:02.328Z,60.47
2019-04-10T22:30:31.565Z,60.31
2019-04-10T22:33:01.807Z,60.59
2019-04-10T22:35:31.425Z,60.84
2019-04-10T22:38:00.684Z,61.03
2019-04-10T22:40:31.157Z,60.69
2019-04-10T22:43:00.536Z,60.76
2019-04-10T22:45:32.731Z,61.17
2019-04-10T22:48:02.133Z,61.15
2019-04-10T22:50:31.356Z,61.42
2019-04-10T22:53:01.382Z,61.54
2019-04-10T22:55:31.814Z,61.83
2019-04-10T22:58:02.382Z,62.23
2019-04-10T23:00:32.740Z,62.12
2019-04-10T23:03:03.435Z,62.32
2019-04-10T23:05:34.468Z,62.26
2019-04-10T23:08:03.690Z,62.85
2019-04-10T23:10:33.261Z,62.54
2019-04-10T23:13:05.380Z,63.06
2019-04-10T23:15:33.636Z,63.20
2019-04-10T23:18:03.333Z,63.13
2019-04-10T23:20:32.594Z,63.26
2019-04-10T23:23:02.979Z,63.45
2019-04-10T23:25:32.341Z,63.58
2019-04-10T23:28:01.494Z,63.56
2019-04-10T23:30:30.870Z,63.61
2019-04-10T23:33:00.074Z,63.84
2019-04-10T23:35:29.511Z,63.84
2019-04-10T23:37:59.500Z,63.84
2019-04-10T23:40:29.339Z,64.16
2019-04-10T23:43:07.988Z,63.93
2019-04-10T23:45:31.530Z,64.10
2019-04-10T23:48:00.674Z,64.33
2019-04-10T23:50:30.317Z,64.31
2019-04-10T23:53:00.362Z,64.47
2019-04-10T23:55:30.205Z,64.50
2019-04-10T23:57:59.996Z,64.63
